National Weather Service Raw Text Product

Displaying AFOS PIL: TAFDSM Received: 2018-12-06 17:25 UTC


827 
FTUS43 KDMX 061725
TAFDSM
TAF
KDSM 061725Z 0618/0718 35015KT P6SM SCT023 SCT150
      TEMPO 0618/0622 BKN023
     FM070000 32004KT P6SM SCT025
     FM071400 23006KT P6SM SCT015 BKN035=